createdAt,value
2018-09-03T00:02:10.454Z,15.30
2018-09-03T00:04:44.708Z,15.20
2018-09-03T00:07:19.062Z,15.20
2018-09-03T00:09:53.371Z,15.10
2018-09-03T00:12:27.599Z,15.10
2018-09-03T00:15:01.955Z,15.00
2018-09-03T00:17:36.377Z,14.90
2018-09-03T00:20:10.921Z,14.90
2018-09-03T00:22:45.434Z,14.90
2018-09-03T00:25:19.915Z,14.90
2018-09-03T00:27:54.171Z,14.90
2018-09-03T00:30:28.464Z,15.00
2018-09-03T00:33:08.205Z,14.90
2018-09-03T00:35:48.066Z,14.90
2018-09-03T00:38:27.690Z,15.00
2018-09-03T00:43:10.282Z,15.10
2018-09-03T00:45:50.003Z,15.10
2018-09-03T00:48:24.323Z,15.10
2018-09-03T00:50:58.866Z,15.20
2018-09-03T00:53:33.278Z,15.20
2018-09-03T00:56:07.723Z,15.20
2018-09-03T00:58:42.159Z,15.20
2018-09-03T01:01:16.393Z,15.30
2018-09-03T01:03:51.199Z,15.20
2018-09-03T01:06:25.563Z,15.20
2018-09-03T01:09:00.407Z,15.10
2018-09-03T01:11:34.634Z,15.10
2018-09-03T01:14:08.929Z,15.10
2018-09-03T01:16:43.442Z,15.10
2018-09-03T01:19:17.895Z,15.00
2018-09-03T01:21:52.355Z,14.90
2018-09-03T01:24:26.684Z,14.90
2018-09-03T01:27:00.950Z,15.10
2018-09-03T01:29:35.251Z,15.10
2018-09-03T01:32:10.366Z,15.10
2018-09-03T01:34:44.755Z,15.20
2018-09-03T01:37:19.145Z,15.20
2018-09-03T01:39:56.362Z,15.10
2018-09-03T01:42:30.757Z,15.10
2018-09-03T01:45:05.212Z,15.20
2018-09-03T01:47:39.723Z,15.20
2018-09-03T01:50:14.342Z,15.10
2018-09-03T01:52:48.738Z,15.10
2018-09-03T01:55:23.181Z,15.00
2018-09-03T01:57:57.431Z,15.10
2018-09-03T02:00:31.810Z,15.20
2018-09-03T02:03:06.210Z,15.20
2018-09-03T02:05:40.630Z,15.20
2018-09-03T02:08:14.995Z,15.20
2018-09-03T02:10:49.431Z,15.20
2018-09-03T02:13:23.766Z,15.20
2018-09-03T02:15:57.995Z,15.10
2018-09-03T02:18:32.206Z,15.10
2018-09-03T02:21:06.953Z,15.10
2018-09-03T02:23:41.321Z,15.10
2018-09-03T02:26:15.560Z,15.00
2018-09-03T02:28:49.878Z,15.00
2018-09-03T02:31:24.321Z,15.00
2018-09-03T02:33:58.906Z,14.90
2018-09-03T02:36:34.011Z,15.00
2018-09-03T02:39:08.486Z,15.00
2018-09-03T02:41:42.892Z,15.00
2018-09-03T02:44:18.513Z,14.90
2018-09-03T02:46:53.022Z,15.00
2018-09-03T02:49:27.604Z,15.00
2018-09-03T02:52:02.079Z,15.20
2018-09-03T02:54:36.462Z,15.10
2018-09-03T02:57:10.811Z,15.10
2018-09-03T02:59:45.163Z,15.10
2018-09-03T03:02:19.383Z,15.00
2018-09-03T03:04:53.894Z,15.10
2018-09-03T03:07:28.132Z,15.00
2018-09-03T03:10:02.717Z,15.00
2018-09-03T03:12:37.264Z,15.10
2018-09-03T03:15:11.671Z,15.10
2018-09-03T03:17:46.789Z,15.10
2018-09-03T03:20:20.989Z,15.10
2018-09-03T03:22:56.169Z,15.10
2018-09-03T03:25:30.369Z,15.10
2018-09-03T03:28:04.639Z,15.10
2018-09-03T03:30:39.032Z,15.20
2018-09-03T03:33:13.387Z,15.10
2018-09-03T03:35:47.683Z,15.00
2018-09-03T03:38:22.030Z,15.10
2018-09-03T03:40:56.281Z,15.00
2018-09-03T03:43:31.067Z,15.00
2018-09-03T03:46:05.452Z,15.10
2018-09-03T03:48:39.954Z,15.10
2018-09-03T03:51:14.276Z,15.20
2018-09-03T03:53:48.670Z,15.30
2018-09-03T03:56:22.986Z,15.30
2018-09-03T03:58:57.221Z,15.20
2018-09-03T04:01:31.534Z,15.20
2018-09-03T04:04:06.084Z,15.20
2018-09-03T04:06:40.431Z,15.20
2018-09-03T04:09:14.810Z,15.10
2018-09-03T04:11:49.139Z,15.10
2018-09-03T04:14:23.370Z,15.00
2018-09-03T04:16:57.661Z,14.90
2018-09-03T04:19:33.982Z,15.00
2018-09-03T04:22:08.222Z,15.10
2018-09-03T04:24:42.599Z,15.10
2018-09-03T04:27:17.118Z,15.20
2018-09-03T04:29:51.633Z,15.20
2018-09-03T04:32:25.904Z,15.10
2018-09-03T04:35:00.167Z,15.10
2018-09-03T04:37:34.498Z,15.10
2018-09-03T04:40:08.864Z,15.00
2018-09-03T04:42:43.565Z,15.00
2018-09-03T04:45:18.985Z,15.00
2018-09-03T04:47:53.328Z,14.90
2018-09-03T04:50:27.680Z,15.00
2018-09-03T04:53:02.125Z,15.00
2018-09-03T04:55:36.506Z,15.00
2018-09-03T04:58:11.160Z,15.00
2018-09-03T05:00:45.517Z,15.10
2018-09-03T05:03:19.897Z,15.10
2018-09-03T05:05:54.336Z,15.10
2018-09-03T05:08:28.687Z,15.00
2018-09-03T05:11:03.157Z,15.10
2018-09-03T05:13:37.368Z,15.20
2018-09-03T05:16:11.634Z,15.20
2018-09-03T05:18:45.878Z,15.10
2018-09-03T05:21:20.410Z,15.20
2018-09-03T05:23:54.762Z,15.20
2018-09-03T05:26:29.127Z,15.40
2018-09-03T05:29:03.527Z,15.40
2018-09-03T05:31:37.891Z,15.40
2018-09-03T05:34:12.158Z,15.40
2018-09-03T05:36:46.531Z,15.50
2018-09-03T05:39:20.740Z,15.50
2018-09-03T05:41:55.090Z,15.60
2018-09-03T05:44:29.436Z,15.60
2018-09-03T05:47:03.773Z,15.70
2018-09-03T05:49:38.238Z,15.70
2018-09-03T05:52:12.483Z,15.70
2018-09-03T05:54:48.003Z,15.70
2018-09-03T05:57:22.281Z,15.70
2018-09-03T05:59:56.612Z,15.70
2018-09-03T06:02:30.883Z,15.60
2018-09-03T06:05:05.079Z,15.60
2018-09-03T06:07:40.672Z,15.70
2018-09-03T06:10:15.173Z,15.70
2018-09-03T06:12:49.429Z,15.70
2018-09-03T06:15:23.919Z,15.80
2018-09-03T06:17:58.168Z,15.70
2018-09-03T06:20:32.541Z,15.70
2018-09-03T06:23:07.028Z,15.60
2018-09-03T06:25:41.702Z,15.60
2018-09-03T06:28:16.079Z,15.70
2018-09-03T06:30:50.337Z,15.70
2018-09-03T06:33:24.692Z,15.80
2018-09-03T06:35:59.203Z,15.90
2018-09-03T06:38:33.508Z,15.90
2018-09-03T06:41:07.779Z,15.90
2018-09-03T06:43:42.372Z,15.90
2018-09-03T06:46:18.019Z,15.90
2018-09-03T06:48:52.976Z,15.90
2018-09-03T06:51:27.247Z,16.00
2018-09-03T06:54:01.574Z,16.10
2018-09-03T06:56:35.870Z,16.30
2018-09-03T06:59:10.678Z,16.30
2018-09-03T07:01:45.031Z,16.30
2018-09-03T07:04:19.403Z,16.30
2018-09-03T07:06:53.781Z,16.40
2018-09-03T07:09:28.220Z,16.40
2018-09-03T07:12:02.629Z,16.40
2018-09-03T07:14:37.003Z,16.50
2018-09-03T07:17:11.363Z,16.50
2018-09-03T07:19:45.764Z,16.60
2018-09-03T07:22:20.111Z,16.70
2018-09-03T07:24:54.472Z,16.70
2018-09-03T07:27:28.810Z,16.80
2018-09-03T07:30:03.067Z,16.80
2018-09-03T07:32:37.287Z,16.80
2018-09-03T07:35:11.771Z,16.80
2018-09-03T07:37:45.927Z,16.60
2018-09-03T07:40:20.307Z,16.60
2018-09-03T07:42:54.556Z,16.60
2018-09-03T07:45:29.020Z,16.50
2018-09-03T07:48:03.474Z,16.40
2018-09-03T07:50:38.733Z,16.30
2018-09-03T07:53:13.042Z,16.30
2018-09-03T07:55:47.342Z,16.40
2018-09-03T07:58:21.598Z,16.40
2018-09-03T08:00:57.115Z,16.60
2018-09-03T08:03:31.489Z,16.70
2018-09-03T08:06:05.824Z,16.80
2018-09-03T08:08:40.274Z,16.80
2018-09-03T08:11:14.627Z,17.00
2018-09-03T08:13:49.002Z,17.10
2018-09-03T08:16:23.246Z,17.10
2018-09-03T08:18:57.501Z,17.00
2018-09-03T08:21:31.950Z,17.20
2018-09-03T08:24:06.339Z,17.00
2018-09-03T08:26:40.701Z,17.10
2018-09-03T08:29:15.074Z,17.20
2018-09-03T08:31:49.431Z,17.10
2018-09-03T08:34:23.886Z,17.00
2018-09-03T08:36:58.113Z,16.90
2018-09-03T08:39:32.375Z,16.80
2018-09-03T08:42:06.673Z,16.80
2018-09-03T08:44:40.894Z,17.00
2018-09-03T08:47:15.266Z,17.10
2018-09-03T08:49:49.478Z,17.20
2018-09-03T08:52:23.807Z,17.20
2018-09-03T08:54:58.093Z,17.10
2018-09-03T08:57:32.356Z,16.90
2018-09-03T09:00:06.830Z,16.80
2018-09-03T09:02:41.345Z,16.80
2018-09-03T09:05:15.685Z,16.90
2018-09-03T09:07:50.088Z,17.00
2018-09-03T09:10:24.331Z,17.10
2018-09-03T09:12:58.698Z,17.20
2018-09-03T09:15:33.321Z,17.20
2018-09-03T09:18:07.974Z,17.20
2018-09-03T09:20:42.368Z,17.00
2018-09-03T09:23:16.894Z,17.00
2018-09-03T09:25:51.422Z,17.00
2018-09-03T09:28:25.777Z,17.00
2018-09-03T09:31:00.141Z,17.00
2018-09-03T09:33:34.434Z,17.00
2018-09-03T09:36:08.861Z,17.00
2018-09-03T09:38:43.424Z,16.90
2018-09-03T09:41:18.028Z,16.80
2018-09-03T09:43:52.298Z,16.70
2018-09-03T09:46:26.721Z,16.70
2018-09-03T09:49:01.319Z,16.70
2018-09-03T09:51:35.678Z,16.70
2018-09-03T09:54:09.957Z,16.70
2018-09-03T09:56:44.338Z,16.80
2018-09-03T09:59:18.771Z,16.70
2018-09-03T10:01:53.618Z,16.50
2018-09-03T10:04:28.101Z,16.50
2018-09-03T10:07:02.320Z,16.60
2018-09-03T10:09:36.580Z,16.70
2018-09-03T10:12:10.895Z,16.70
2018-09-03T10:14:45.753Z,16.60
2018-09-03T10:17:20.220Z,16.50
2018-09-03T10:19:54.723Z,16.40
2018-09-03T10:22:29.287Z,16.30
2018-09-03T10:25:03.756Z,16.30
2018-09-03T10:27:37.991Z,16.30
2018-09-03T10:30:12.320Z,16.30
2018-09-03T10:32:46.701Z,16.30
2018-09-03T10:35:21.004Z,16.30
2018-09-03T10:37:55.397Z,16.30
2018-09-03T10:40:29.799Z,16.20
2018-09-03T10:43:04.202Z,16.20
2018-09-03T10:45:44.157Z,16.10
2018-09-03T10:48:19.342Z,16.10
2018-09-03T10:50:53.799Z,16.00
2018-09-03T10:53:28.229Z,16.10
2018-09-03T10:56:02.714Z,16.20
2018-09-03T10:58:36.979Z,16.30
2018-09-03T11:01:11.362Z,16.40
2018-09-03T11:03:45.633Z,16.40
2018-09-03T11:06:20.007Z,16.60
2018-09-03T11:08:54.650Z,16.60
2018-09-03T11:11:29.099Z,16.70
2018-09-03T11:14:03.412Z,16.70
2018-09-03T11:16:38.330Z,16.90
2018-09-03T11:19:12.649Z,16.90
2018-09-03T11:21:47.172Z,17.00
2018-09-03T11:24:21.610Z,17.10
2018-09-03T11:26:56.202Z,17.10
2018-09-03T11:29:30.845Z,17.20
2018-09-03T11:32:05.403Z,17.30
2018-09-03T11:34:39.708Z,17.40
2018-09-03T11:37:14.178Z,17.30
2018-09-03T11:39:48.490Z,17.20
2018-09-03T11:42:22.749Z,17.20
2018-09-03T11:44:57.173Z,17.30
2018-09-03T11:47:31.491Z,17.30
2018-09-03T11:50:06.009Z,17.40
2018-09-03T11:52:40.454Z,17.50
2018-09-03T11:55:15.324Z,17.50
2018-09-03T11:57:49.578Z,17.70
2018-09-03T12:00:26.937Z,17.90
2018-09-03T12:03:01.323Z,18.10
2018-09-03T12:05:35.517Z,18.40
2018-09-03T12:08:09.792Z,18.50
2018-09-03T12:10:44.877Z,18.70
2018-09-03T12:13:19.173Z,18.80
2018-09-03T12:16:23.951Z,18.80
2018-09-03T12:18:59.104Z,19.00
2018-09-03T12:21:33.674Z,19.30
2018-09-03T12:24:07.884Z,19.40
2018-09-03T12:26:42.090Z,19.40
2018-09-03T12:29:16.419Z,19.50
2018-09-03T12:31:50.631Z,19.70
2018-09-03T12:34:25.004Z,20.10
2018-09-03T12:36:59.406Z,20.30
2018-09-03T12:39:33.596Z,20.40
2018-09-03T12:42:07.841Z,20.60
2018-09-03T12:44:42.076Z,20.50
2018-09-03T12:47:16.651Z,20.40
2018-09-03T12:49:50.893Z,20.50
2018-09-03T12:52:25.101Z,20.80
2018-09-03T12:54:59.497Z,20.90
2018-09-03T12:57:33.868Z,21.10
2018-09-03T13:00:08.244Z,21.40
2018-09-03T13:02:42.474Z,21.50
2018-09-03T13:05:19.202Z,21.70
2018-09-03T13:07:53.569Z,22.10
2018-09-03T13:10:27.870Z,22.60
2018-09-03T13:13:02.633Z,23.10
2018-09-03T13:15:36.940Z,23.40
2018-09-03T13:18:11.277Z,23.30
2018-09-03T13:20:47.485Z,23.10
2018-09-03T13:23:21.775Z,23.10
2018-09-03T13:25:56.111Z,22.80
2018-09-03T13:28:30.338Z,23.30
2018-09-03T13:31:04.687Z,24.30
2018-09-03T13:33:38.998Z,25.30
2018-09-03T13:36:13.401Z,25.70
2018-09-03T13:38:47.791Z,25.90
2018-09-03T13:41:22.166Z,26.00
2018-09-03T13:43:56.450Z,25.30
2018-09-03T13:46:32.818Z,24.80
2018-09-03T13:49:07.210Z,25.30
2018-09-03T13:51:41.644Z,25.70
2018-09-03T13:54:15.917Z,26.10
2018-09-03T13:56:50.247Z,26.00
2018-09-03T13:59:24.680Z,25.40
2018-09-03T14:01:58.883Z,25.10
2018-09-03T14:04:33.202Z,24.10
2018-09-03T14:07:08.915Z,23.50
2018-09-03T14:09:43.538Z,22.80
2018-09-03T14:12:17.834Z,22.10
2018-09-03T14:14:52.222Z,21.80
2018-09-03T14:17:27.095Z,22.70
2018-09-03T14:20:01.593Z,23.20
2018-09-03T14:22:35.895Z,22.90
2018-09-03T14:25:10.115Z,22.40
2018-09-03T14:27:44.623Z,22.40
2018-09-03T14:30:18.936Z,22.20
2018-09-03T14:32:53.573Z,21.90
2018-09-03T14:35:27.990Z,21.60
2018-09-03T14:38:02.339Z,21.50
2018-09-03T14:40:36.796Z,21.40
2018-09-03T14:43:11.210Z,21.30
2018-09-03T14:45:45.521Z,21.30
2018-09-03T14:48:20.124Z,21.50
2018-09-03T14:50:54.479Z,21.70
2018-09-03T14:53:28.838Z,21.70
2018-09-03T14:56:03.331Z,21.70
2018-09-03T14:58:37.763Z,21.90
2018-09-03T15:01:12.005Z,21.90
2018-09-03T15:03:46.485Z,22.10
2018-09-03T15:06:20.797Z,22.30
2018-09-03T15:08:55.528Z,22.40
2018-09-03T15:11:30.062Z,22.60
2018-09-03T15:14:04.401Z,22.60
2018-09-03T15:16:38.594Z,22.40
2018-09-03T15:19:12.995Z,22.40
2018-09-03T15:21:47.340Z,22.50
2018-09-03T15:24:23.025Z,22.80
2018-09-03T15:26:57.277Z,23.10
2018-09-03T15:29:31.716Z,23.00
2018-09-03T15:32:06.002Z,23.10
2018-09-03T15:34:40.370Z,23.50
2018-09-03T15:37:15.140Z,23.30
2018-09-03T15:39:49.865Z,22.90
2018-09-03T15:42:24.183Z,22.80
2018-09-03T15:44:58.533Z,22.90
2018-09-03T15:47:32.870Z,23.20
2018-09-03T15:50:07.190Z,23.80
2018-09-03T15:52:41.458Z,24.40
2018-09-03T15:55:15.697Z,25.00
2018-09-03T15:57:49.951Z,25.40
2018-09-03T16:00:24.389Z,25.60
2018-09-03T16:02:58.714Z,25.30
2018-09-03T16:05:33.001Z,25.50
2018-09-03T16:08:07.363Z,25.10
2018-09-03T16:10:41.788Z,25.10
2018-09-03T16:13:16.049Z,24.80
2018-09-03T16:15:50.407Z,24.60
2018-09-03T16:18:25.899Z,24.40
2018-09-03T16:21:00.250Z,24.00
2018-09-03T16:23:35.333Z,23.50
2018-09-03T16:26:09.659Z,23.00
2018-09-03T16:28:44.048Z,22.60
2018-09-03T16:31:18.352Z,22.20
2018-09-03T16:33:52.573Z,21.70
2018-09-03T16:36:27.017Z,21.50
2018-09-03T16:39:01.431Z,21.60
2018-09-03T16:41:35.887Z,22.00
2018-09-03T16:44:10.341Z,21.80
2018-09-03T16:46:44.591Z,21.70
2018-09-03T16:49:18.972Z,21.90
2018-09-03T16:51:53.158Z,21.80
2018-09-03T16:54:27.443Z,21.60
2018-09-03T16:57:01.765Z,21.40
2018-09-03T16:59:36.042Z,21.20
2018-09-03T17:02:10.377Z,21.00
2018-09-03T17:04:44.659Z,20.70
2018-09-03T17:07:19.232Z,20.60
2018-09-03T17:09:53.440Z,20.40
2018-09-03T17:12:27.859Z,20.30
2018-09-03T17:15:02.243Z,20.10
2018-09-03T17:17:36.547Z,19.90
2018-09-03T17:20:10.812Z,19.70
2018-09-03T17:22:45.074Z,19.60
2018-09-03T17:25:19.454Z,19.40
2018-09-03T17:27:53.760Z,19.40
2018-09-03T17:30:28.183Z,19.30
2018-09-03T17:33:02.694Z,19.30
2018-09-03T17:35:36.983Z,19.20
2018-09-03T17:38:11.273Z,19.20
2018-09-03T17:40:45.788Z,19.10
2018-09-03T17:43:21.161Z,19.10
2018-09-03T17:45:55.525Z,19.10
2018-09-03T17:48:29.725Z,19.10
2018-09-03T17:51:04.148Z,19.00
2018-09-03T17:53:38.448Z,18.80
2018-09-03T17:56:12.731Z,18.60
2018-09-03T17:58:46.987Z,18.40
2018-09-03T18:01:21.308Z,18.20
2018-09-03T18:03:55.517Z,18.10
2018-09-03T18:06:29.795Z,18.00
2018-09-03T18:09:05.143Z,17.80
2018-09-03T18:11:39.534Z,17.80
2018-09-03T18:14:13.746Z,17.60
2018-09-03T18:16:48.032Z,17.40
2018-09-03T18:19:22.391Z,17.40
2018-09-03T18:22:00.020Z,17.30
2018-09-03T18:24:34.385Z,17.30
2018-09-03T18:27:08.750Z,17.20
2018-09-03T18:29:43.330Z,17.10
2018-09-03T18:32:17.695Z,16.90
2018-09-03T18:34:52.099Z,16.70
2018-09-03T18:37:26.430Z,16.60
2018-09-03T18:40:00.726Z,16.60
2018-09-03T18:42:35.137Z,16.60
2018-09-03T18:45:09.442Z,16.50
2018-09-03T18:47:43.771Z,16.50
2018-09-03T18:50:18.060Z,16.40
2018-09-03T18:52:52.596Z,16.40
2018-09-03T18:55:26.862Z,16.30
2018-09-03T18:58:02.092Z,16.30
2018-09-03T19:00:36.518Z,16.20
2018-09-03T19:03:10.961Z,16.10
2018-09-03T19:05:45.691Z,16.00
2018-09-03T19:08:20.180Z,16.00
2018-09-03T19:10:54.652Z,16.00
2018-09-03T19:13:29.032Z,15.90
2018-09-03T19:16:03.573Z,15.80
2018-09-03T19:18:37.964Z,15.90
2018-09-03T19:21:12.386Z,15.80
2018-09-03T19:23:46.790Z,15.70
2018-09-03T19:26:21.235Z,15.90
2018-09-03T19:28:55.599Z,15.90
2018-09-03T19:31:30.173Z,15.90
2018-09-03T19:34:04.907Z,15.90
2018-09-03T19:36:42.317Z,16.00
2018-09-03T19:39:17.052Z,15.90
2018-09-03T19:41:51.699Z,16.00
2018-09-03T19:44:26.110Z,16.00
2018-09-03T19:47:00.826Z,15.90
2018-09-03T19:49:36.746Z,16.00
2018-09-03T19:52:11.445Z,15.90
2018-09-03T19:54:46.092Z,15.80
2018-09-03T19:57:20.545Z,15.80
2018-09-03T19:59:56.237Z,15.80
2018-09-03T20:02:30.601Z,15.80
2018-09-03T20:05:04.934Z,15.70
2018-09-03T20:07:39.379Z,15.70
2018-09-03T20:10:13.599Z,15.70
2018-09-03T20:12:47.905Z,15.90
2018-09-03T20:15:24.861Z,15.80
2018-09-03T20:17:59.290Z,15.80
2018-09-03T20:20:33.564Z,15.80
2018-09-03T20:23:07.820Z,15.70
2018-09-03T20:25:42.101Z,15.70
2018-09-03T20:28:16.325Z,15.80
2018-09-03T20:30:50.685Z,15.80
2018-09-03T20:33:24.918Z,15.80
2018-09-03T20:35:59.114Z,15.90
2018-09-03T20:38:33.457Z,15.90
2018-09-03T20:41:07.899Z,15.80
2018-09-03T20:43:42.157Z,15.90
2018-09-03T20:46:16.443Z,15.80
2018-09-03T20:48:50.818Z,15.80
2018-09-03T20:51:25.172Z,15.90
2018-09-03T20:53:59.498Z,15.90
2018-09-03T20:56:33.842Z,16.00
2018-09-03T20:59:08.215Z,15.90
2018-09-03T21:01:42.566Z,15.80
2018-09-03T21:04:17.364Z,15.80
2018-09-03T21:06:51.659Z,15.90
2018-09-03T21:09:26.029Z,15.80
2018-09-03T21:12:00.331Z,15.80
2018-09-03T21:14:34.699Z,15.80
2018-09-03T21:17:08.906Z,15.80
2018-09-03T21:19:43.146Z,15.90
2018-09-03T21:22:17.568Z,15.90
2018-09-03T21:24:52.030Z,16.00
2018-09-03T21:27:26.815Z,16.10
2018-09-03T21:30:01.216Z,16.10
2018-09-03T21:32:35.702Z,16.10
2018-09-03T21:35:10.108Z,16.00
2018-09-03T21:37:44.351Z,15.80
2018-09-03T21:40:18.687Z,15.70
2018-09-03T21:42:53.075Z,15.60
2018-09-03T21:45:27.534Z,15.60
2018-09-03T21:48:01.916Z,15.80
2018-09-03T21:50:36.180Z,15.80
2018-09-03T21:53:10.577Z,15.70
2018-09-03T21:55:45.179Z,15.70
2018-09-03T21:58:19.599Z,15.70
2018-09-03T22:00:53.810Z,15.60
2018-09-03T22:03:28.469Z,15.60
2018-09-03T22:06:02.726Z,15.50
2018-09-03T22:08:37.172Z,15.40
2018-09-03T22:11:11.470Z,15.30
2018-09-03T22:13:45.716Z,15.10
2018-09-03T22:16:20.043Z,15.10
2018-09-03T22:18:54.283Z,15.30
2018-09-03T22:21:28.535Z,15.30
2018-09-03T22:24:02.745Z,15.30
2018-09-03T22:26:37.147Z,15.00
2018-09-03T22:29:11.430Z,14.80
2018-09-03T22:31:45.861Z,14.90
2018-09-03T22:34:20.313Z,14.80
2018-09-03T22:36:54.736Z,14.90
2018-09-03T22:39:29.067Z,14.90
2018-09-03T22:42:03.926Z,14.80
2018-09-03T22:44:38.254Z,14.80
2018-09-03T22:47:12.692Z,14.80
2018-09-03T22:49:46.995Z,14.80
2018-09-03T22:52:22.461Z,14.70
2018-09-03T22:54:57.050Z,14.60
2018-09-03T22:57:31.949Z,14.50
2018-09-03T23:00:06.788Z,14.50
2018-09-03T23:02:45.861Z,14.30
2018-09-03T23:05:20.192Z,14.40
2018-09-03T23:07:54.449Z,14.40
2018-09-03T23:10:28.783Z,14.20
2018-09-03T23:13:03.370Z,14.40
2018-09-03T23:15:37.987Z,14.40
2018-09-03T23:18:12.617Z,14.40
2018-09-03T23:20:47.204Z,14.20
2018-09-03T23:23:21.665Z,14.20
2018-09-03T23:25:56.444Z,14.10
2018-09-03T23:28:30.855Z,14.00
2018-09-03T23:31:05.251Z,14.10
2018-09-03T23:33:39.638Z,14.10
2018-09-03T23:36:14.036Z,14.00
2018-09-03T23:38:48.328Z,14.00
2018-09-03T23:41:22.932Z,14.10
2018-09-03T23:43:57.198Z,14.10
2018-09-03T23:46:31.653Z,14.00
2018-09-03T23:49:06.065Z,13.90
2018-09-03T23:51:40.295Z,13.90
2018-09-03T23:54:14.719Z,13.90
2018-09-03T23:56:49.081Z,13.90
2018-09-03T23:59:23.423Z,13.90
